Stormwatcher's Retreat Logo




                  Temp     Hi    Low   Out    Dew  Wind  Wind   Wind    Hi    Hi   Wind   Heat    THW   THSW                Rain  Solar   Solar Hi Solar   UV    UV    Hi     Heat    Cool    In     In    In     In     In   In Air          Wind  Wind    ISS   Arc.
  Date    Time     Out   Temp   Temp   Hum    Pt. Speed   Dir    Run Speed   Dir  Chill  Index  Index  Index   Bar    Rain  Rate   Rad.  Energy    Rad.  Index  Dose   UV     D-D     D-D    Temp   Hum    Dew   Heat    EMC Density     ET   Samp   Tx   Recept  Int.
------------------------------------------------------------------------------------------------------------------------------------------------------------------------------------------------------------------------------------------------------------------------
 6/17/18 12:10a   54.6   54.7   54.5    92   52.3   4.0   ENE   0.67   8.0   ENE   54.2   54.7   54.3   51.3  29.943  0.00  0.00     0     0.00      0     0.0  0.00   0.0   0.072   0.000   73.1    53   54.9   72.9   9.73  .0735    0.000   207    5    100.0   10 
 6/17/18 12:20a   54.8   54.8   54.6    92   52.5   2.0    NE   0.33   5.0   ENE   54.8   54.9   54.9   51.9  29.944  0.00  0.00     0     0.00      0     0.0  0.00   0.0   0.071   0.000   73.1    53   54.9   72.9   9.73  .0735    0.000   211    5    100.0   10 
 6/17/18 12:30a   54.4   54.8   54.4    91   51.8   1.0    NE   0.17   2.0   NNE   54.4   54.5   54.5   51.5  29.942  0.00  0.00     0     0.00      0     0.0  0.00   0.0   0.074   0.000   73.1    53   54.9   72.9   9.73  .0735    0.000   210    5    100.0   10 
 6/17/18 12:40a   54.2   54.4   54.2    92   51.9   1.0   ESE   0.17   2.0   ENE   54.2   54.3   54.3   51.3  29.934  0.00  0.00     0     0.00      0     0.0  0.00   0.0   0.075   0.000   73.1    53   54.9   72.9   9.73  .0734    0.000   208    5    100.0   10 
 6/17/18 12:50a   54.8   54.8   54.2    92   52.5   1.0   SSW   0.17   3.0   SSW   54.8   54.9   54.9   51.9  29.929  0.00  0.00     0     0.00      0     0.0  0.00   0.0   0.071   0.000   73.0    53   54.9   72.8   9.73  .0734    0.000   212    5    100.0   10 
 6/17/18  1:00a   54.2   54.8   54.2    91   51.6   2.0   ENE   0.33   4.0   ENE   54.2   54.3   54.3   51.3  29.926  0.00  0.00     0     0.00      0     0.0  0.00   0.0   0.075   0.000   73.0    53   54.9   72.8   9.73  .0734    0.000   213    5    100.0   10 
 6/17/18  1:10a   53.9   54.2   53.9    92   51.6   1.0     N   0.17   3.0     E   53.9   54.0   54.0   51.0  29.924  0.00  0.00     0     0.00      0     0.0  0.00   0.0   0.077   0.000   73.0    53   54.9   72.8   9.73  .0734    0.000   211    5    100.0   10 
 6/17/18  1:20a   53.8   53.9   53.7    92   51.5   0.0     N   0.00   2.0     N   53.8   53.9   53.9   50.9  29.923  0.00  0.00     0     0.00      0     0.0  0.00   0.0   0.078   0.000   72.9    53   54.8   72.7   9.73  .0734    0.000   213    5    100.0   10 
 6/17/18  1:30a   53.9   53.9   53.7    92   51.6   2.0    NE   0.33   4.0    NE   53.9   54.0   54.0   51.0  29.920  0.00  0.00     0     0.00      0     0.0  0.00   0.0   0.077   0.000   72.9    53   54.8   72.7   9.73  .0734    0.000   208    5    100.0   10 
 6/17/18  1:40a   54.2   54.2   53.9    92   51.9   2.0    NE   0.33   4.0    NE   54.2   54.3   54.3   51.3  29.916  0.00  0.00     0     0.00      0     0.0  0.00   0.0   0.075   0.000   72.9    53   54.8   72.7   9.73  .0734    0.000   210    5    100.0   10 
 6/17/18  1:50a   53.8   54.4   53.8    91   51.2   3.0   NNE   0.50   4.0     N   53.8   53.9   53.9   50.9  29.918  0.00  0.00     0     0.00      0     0.0  0.00   0.0   0.078   0.000   72.9    53   54.8   72.7   9.73  .0734    0.000   214    5    100.0   10 
 6/17/18  2:00a   53.1   53.8   53.1    92   50.8   3.0    NE   0.50   6.0    NE   53.1   53.3   53.3   50.2  29.918  0.00  0.00     0     0.00      0     0.0  0.00   0.0   0.083   0.000   72.9    53   54.8   72.7   9.73  .0734    0.000   212    5    100.0   10 
 6/17/18  2:10a   53.0   53.0   53.0    92   50.7   3.0    NE   0.50   5.0   ENE   53.0   53.2   53.2   50.1  29.915  0.00  0.00     0     0.00      0     0.0  0.00   0.0   0.083   0.000   72.8    53   54.7   72.5   9.74  .0734    0.000   212    5    100.0   10 
 6/17/18  2:20a   52.8   53.0   52.8    92   50.5   2.0   NNE   0.33   6.0     N   52.8   53.0   53.0   49.9  29.918  0.00  0.00     0     0.00      0     0.0  0.00   0.0   0.085   0.000   72.8    53   54.7   72.5   9.74  .0735    0.000   210    5    100.0   10 
 6/17/18  2:30a   52.8   52.8   52.8    92   50.5   2.0     N   0.33   3.0     N   52.8   53.0   53.0   49.9  29.920  0.00  0.00     0     0.00      0     0.0  0.00   0.0   0.085   0.000   72.8    53   54.7   72.5   9.74  .0735    0.000   213    5    100.0   10 
 6/17/18  2:40a   52.8   52.8   52.7    93   50.8   1.0     E   0.17   3.0     E   52.8   53.0   53.0   49.9  29.924  0.00  0.00     0     0.00      0     0.0  0.00   0.0   0.085   0.000   72.7    53   54.6   72.4   9.74  .0735    0.000   211    5    100.0   10 
 6/17/18  2:50a   52.7   52.7   52.7    93   50.7   2.0    NE   0.33   4.0   NNW   52.7   52.9   52.9   49.8  29.929  0.00  0.00     0     0.00      0     0.0  0.00   0.0   0.085   0.000   72.7    53   54.6   72.4   9.74  .0735    0.000   212    5    100.0   10 
 6/17/18  3:00a   52.5   52.6   52.4    93   50.5   2.0   ENE   0.33   5.0   ENE   52.5   52.7   52.7   49.6  29.928  0.00  0.00     0     0.00      0     0.0  0.00   0.0   0.087   0.000   72.7    53   54.6   72.4   9.74  .0735    0.000   210    5    100.0   10 
 6/17/18  3:10a   53.2   53.2   52.5    93   51.2   1.0   ESE   0.17   4.0   ENE   53.2   53.4   53.4   50.4  29.929  0.00  0.00     0     0.00      0     0.0  0.00   0.0   0.082   0.000   72.6    53   54.5   72.2   9.75  .0735    0.000   207    5    100.0   10 
 6/17/18  3:20a   53.0   53.2   53.0    93   51.0   1.0     N   0.17   3.0   NNW   53.0   53.2   53.2   50.2  29.925  0.00  0.00     0     0.00      0     0.0  0.00   0.0   0.083   0.000   72.6    53   54.5   72.2   9.75  .0735    0.000   207    5    100.0   10 
 6/17/18  3:30a   52.9   53.0   52.9    93   50.9   1.0    SE   0.17   3.0     W   52.9   53.1   53.1   50.0  29.921  0.00  0.00     0     0.00      0     0.0  0.00   0.0   0.084   0.000   72.5    53   54.4   72.1   9.75  .0735    0.000   213    5    100.0   10 
 6/17/18  3:40a   52.8   52.9   52.7    93   50.8   0.0   ESE   0.00   2.0   ESE   52.8   53.0   53.0   49.9  29.924  0.00  0.00     0     0.00      0     0.0  0.00   0.0   0.085   0.000   72.5    53   54.4   72.1   9.75  .0735    0.000   211    5    100.0   10 
 6/17/18  3:50a   53.1   53.1   52.7    94   51.4   1.0   SSE   0.17   3.0   SSE   53.1   53.4   53.4   50.4  29.919  0.00  0.00     0     0.00      0     0.0  0.00   0.0   0.083   0.000   72.5    53   54.4   72.1   9.75  .0735    0.000   211    5    100.0   10 
 6/17/18  4:00a   53.0   53.2   53.0    93   51.0   1.0   SSE   0.17   3.0     E   53.0   53.2   53.2   50.2  29.922  0.00  0.00     0     0.00      0     0.0  0.00   0.0   0.083   0.000   72.5    53   54.4   72.1   9.75  .0735    0.000   213    5    100.0   10 
 6/17/18  4:10a   52.6   53.0   52.6    93   50.6   2.0    NE   0.33   4.0    NW   52.6   52.8   52.8   49.7  29.922  0.00  0.00     0     0.00      0     0.0  0.00   0.0   0.086   0.000   72.4    53   54.3   71.9   9.75  .0735    0.000   213    5    100.0   10 
 6/17/18  4:20a   52.6   52.6   52.5    93   50.6   1.0    NE   0.17   4.0    NE   52.6   52.8   52.8   49.7  29.923  0.00  0.00     0     0.00      0     0.0  0.00   0.0   0.086   0.000   72.4    53   54.3   71.9   9.75  .0735    0.000   211    5    100.0   10 
 6/17/18  4:30a   52.8   52.8   52.6    94   51.1   0.0   ESE   0.00   1.0   ESE   52.8   53.1   53.1   50.1  29.926  0.00  0.00     0     0.00      0     0.0  0.00   0.0   0.085   0.000   72.4    53   54.3   71.9   9.75  .0735    0.000   212    5    100.0   10 
 6/17/18  4:40a   52.6   52.9   52.6    93   50.6   1.0   ENE   0.17   3.0    NE   52.6   52.8   52.8   49.7  29.928  0.00  0.00     0     0.00      0     0.0  0.00   0.0   0.086   0.000   72.3    53   54.2   71.8   9.76  .0736    0.000   213    5    100.0   10 
 6/17/18  4:50a   52.6   52.6   52.6    93   50.6   1.0   ENE   0.17   3.0   ENE   52.6   52.8   52.8   49.7  29.930  0.00  0.00     0     0.00      0     0.0  0.00   0.0   0.086   0.000   72.3    53   54.2   71.8   9.76  .0736    0.000   209    5    100.0   10 
 6/17/18  5:00a   52.7   52.7   52.3    94   51.0   1.0     W   0.17   3.0    NW   52.7   53.0   53.0   50.0  29.932  0.00  0.00     0     0.00      0     0.0  0.00   0.0   0.085   0.000   72.3    53   54.2   71.8   9.76  .0736    0.000   209    5    100.0   10 
 6/17/18  5:10a   52.4   52.7   52.4    93   50.4   1.0    NW   0.17   3.0     W   52.4   52.6   52.6   49.5  29.930  0.00  0.00     0     0.00      0     0.0  0.00   0.0   0.087   0.000   72.2    53   54.1   71.6   9.76  .0736    0.000   212    5    100.0   10 
 6/17/18  5:20a   52.1   52.4   52.1    93   50.1   0.0    NW   0.00   2.0    NW   52.1   52.4   52.4   49.3  29.928  0.00  0.00     0     0.00      0     0.0  0.00   0.0   0.090   0.000   72.2    53   54.1   71.6   9.76  .0736    0.000   214    5    100.0   10 
 6/17/18  5:30a   52.1   52.1   52.0    94   50.4   0.0    SE   0.00   2.0    SW   52.1   52.4   52.4   49.4  29.919  0.00  0.00     1     0.01      5     0.0  0.00   0.0   0.090   0.000   72.2    53   54.1   71.6   9.76  .0736    0.000   210    5    100.0   10 
 6/17/18  5:40a   52.3   52.3   52.0    94   50.6   1.0    NE   0.17   4.0    NE   52.3   52.6   52.6   49.7  29.923  0.00  0.00     7     0.10      9     0.0  0.00   0.0   0.088   0.000   72.1    52   53.5   71.4   9.61  .0736    0.000   214    5    100.0   10 
 6/17/18  5:50a   51.8   52.3   51.8    93   49.8   1.0   ENE   0.17   4.0   NNW   51.8   52.1   52.1   49.2  29.927  0.00  0.00    11     0.16     12     0.0  0.00   0.0   0.092   0.000   72.1    52   53.5   71.4   9.61  .0736    0.000   211    5    100.0   10 
 6/17/18  6:00a   51.7   51.8   51.6    94   50.0   1.0   ENE   0.17   4.0    NE   51.7   52.0   52.0   49.2  29.932  0.00  0.00    14     0.20     16     0.0  0.00   0.0   0.092   0.000   72.1    52   53.5   71.4   9.61  .0736    0.000   208    5    100.0   10 
 6/17/18  6:10a   52.7   52.7   51.7    95   51.3   2.0     E   0.33   4.0     E   52.7   53.0   53.0   50.4  29.929  0.00  0.00    17     0.24     19     0.0  0.00   0.0   0.085   0.000   72.0    52   53.4   71.3   9.61  .0736    0.000   211    5    100.0   10 
 6/17/18  6:20a   52.8   52.9   52.7    94   51.1   1.0   ESE   0.17   2.0   ESE   52.8   53.1   53.1   50.5  29.926  0.00  0.00    20     0.29     21     0.0  0.00   0.0   0.085   0.000   72.0    52   53.4   71.3   9.61  .0736    0.000   211    5    100.0   10 
 6/17/18  6:30a   51.7   52.7   51.7    93   49.7   2.0    NW   0.33   4.0   WNW   51.7   52.0   52.0   49.4  29.931  0.00  0.00    23     0.33     25     0.0  0.00   0.0   0.092   0.000   72.0    52   53.4   71.3   9.61  .0736    0.000   213    5    100.0   10 
 6/17/18  6:40a   51.9   51.9   51.7    94   50.2   1.0   WNW   0.17   4.0     W   51.9   52.2   52.2   49.7  29.936  0.00  0.00    26     0.37     30     0.0  0.00   0.0   0.091   0.000   72.0    52   53.4   71.3   9.61  .0737    0.000   211    5    100.0   10 
 6/17/18  6:50a   52.7   52.7   51.9    95   51.3   0.0     E   0.00   2.0     E   52.7   53.0   53.0   52.4  29.932  0.00  0.00   113     1.62    148     0.0  0.00   0.0   0.085   0.000   72.0    52   53.4   71.3   9.61  .0736    0.000   213    5    100.0   10 
 6/17/18  7:00a   53.5   53.5   52.8    95   52.1   1.0   NNW   0.17   3.0    NW   53.5   53.8   53.8   58.0  29.933  0.00  0.00   158     2.26    171     0.0  0.00   0.0   0.080   0.000   72.0    52   53.4   71.3   9.61  .0736    0.001   211    5    100.0   10 
 6/17/18  7:10a   55.1   55.1   53.6    95   53.7   0.0     E   0.00   2.0     E   55.1   55.3   55.3   60.7  29.939  0.00  0.00   188     2.70    200     0.0  0.00   0.0   0.069   0.000   71.9    52   53.3   71.1   9.61  .0737    0.000   214    5    100.0   10 
 6/17/18  7:20a   55.3   55.5   55.1    94   53.6   0.0     E   0.00   2.0     E   55.3   55.5   55.5   61.6  29.941  0.00  0.00   212     3.04    223     0.0  0.00   0.0   0.067   0.000   72.0    52   53.4   71.3   9.61  .0737    0.000   210    5    100.0   10 
 6/17/18  7:30a   55.1   55.6   55.1    93   53.1   0.0   ENE   0.00   2.0   ENE   55.1   55.3   55.3   62.0  29.941  0.00  0.00   237     3.40    250     0.0  0.00   0.0   0.069   0.000   72.0    52   53.4   71.3   9.61  .0737    0.000   210    5    100.0   10 
 6/17/18  7:40a   55.0   55.1   54.7    93   53.0   2.0    NE   0.33   4.0    NE   55.0   55.2   55.2   62.4  29.943  0.00  0.00   259     3.71    274     0.0  0.00   0.0   0.069   0.000   72.0    53   53.9   71.3   9.77  .0737    0.000   211    5    100.0   10 
 6/17/18  7:50a   54.8   55.5   54.8    93   52.8   2.0    NE   0.33   5.0   NNW   54.8   55.0   55.0   63.0  29.944  0.00  0.00   293     4.20    318     0.0  0.00   0.0   0.071   0.000   72.0    53   53.9   71.3   9.77  .0737    0.000   211    5    100.0   10 
 6/17/18  8:00a   56.1   56.1   54.8    94   54.4   2.0   NNE   0.33   4.0   NNE   56.1   56.3   56.3   64.8  29.942  0.00  0.00   322     4.62    332     0.0  0.00   0.0   0.062   0.000   72.0    53   53.9   71.3   9.77  .0737    0.005   212    5    100.0   10 
 6/17/18  8:10a   55.5   56.1   55.5    92   53.2   4.0    NE   0.67   8.0     N   55.2   55.6   55.3   64.3  29.947  0.00  0.00   354     5.07    378     0.0  0.00   0.0   0.066   0.000   72.0    53   53.9   71.3   9.77  .0737    0.000   212    5    100.0   10 
 6/17/18  8:20a   55.7   55.7   55.3    93   53.7   4.0    NE   0.67   8.0   ENE   55.4   55.9   55.6   65.1  29.948  0.00  0.00   391     5.61    403     0.0  0.00   0.0   0.065   0.000   72.0    53   53.9   71.3   9.77  .0737    0.000   211    5    100.0   10 
 6/17/18  8:30a   56.9   56.9   55.7    93   54.9   3.0   ENE   0.50   6.0     E   56.9   57.1   57.1   66.8  29.945  0.00  0.00   417     5.98    429     0.0  0.00   0.0   0.056   0.000   72.0    53   53.9   71.3   9.77  .0737    0.000   209    5    100.0   10 
 6/17/18  8:40a   56.6   57.3   56.6    91   54.0   4.0   NNE   0.67   7.0     N   56.5   56.7   56.6   66.4  29.946  0.00  0.00   441     6.32    455     0.0  0.00   0.0   0.058   0.000   72.0    53   53.9   71.3   9.77  .0737    0.000   210    5    100.0   10 
 6/17/18  8:50a   57.2   57.2   56.6    92   54.9   4.0    NE   0.67   7.0     N   57.2   57.3   57.3   67.3  29.946  0.00  0.00   471     6.75    487     0.0  0.00   0.0   0.054   0.000   71.9    53   53.8   71.2   9.77  .0737    0.000   210    5    100.0   10 
 6/17/18  9:00a   57.6   57.6   57.1    92   55.3   5.0   NNE   0.83   9.0     N   57.1   57.8   57.3   67.4  29.950  0.00  0.00   498     7.14    512     0.0  0.00   0.0   0.051   0.000   71.9    53   53.8   71.2   9.77  .0737    0.009   211    5    100.0   10 
 6/17/18  9:10a   57.5   57.8   57.3    91   54.9   6.0    NE   1.00  10.0   NNE   56.6   57.6   56.7   66.9  29.951  0.00  0.00   526     7.54    540     0.0  0.00   0.0   0.052   0.000   71.8    53   53.7   71.0   9.78  .0737    0.000   210    5    100.0   10 
 6/17/18  9:20a   58.6   58.6   57.5    91   56.0   6.0    NE   1.00  10.0   ENE   57.9   58.8   58.1   68.4  29.951  0.00  0.00   556     7.97    571     0.0  0.00   0.0   0.044   0.000   71.8    53   53.7   71.0   9.78  .0737    0.000   209    5    100.0   10 
 6/17/18  9:30a   60.3   60.3   58.6    90   57.4   6.0    NE   1.00  10.0    NE   60.0   60.6   60.3   70.8  29.951  0.00  0.00   584     8.37    594     0.0  0.00   0.0   0.033   0.000   71.7    53   53.7   70.9   9.78  .0737    0.000   212    5    100.0   10 
 6/17/18  9:40a   60.3   60.3   59.9    89   57.0   6.0    NE   1.00  11.0   NNE   60.0   60.6   60.3   70.8  29.946  0.00  0.00   608     8.72    621     0.0  0.00   0.0   0.033   0.000   71.7    53   53.7   70.9   9.78  .0737    0.000   214    5    100.0   10 
 6/17/18  9:50a   61.2   61.4   60.3    87   57.3   6.0    NE   1.00  10.0    NE   61.0   61.5   61.3   71.8  29.943  0.00  0.00   635     9.10    645     0.3  0.02   0.8   0.026   0.000   71.6    53   53.6   70.7   9.79  .0737    0.000   211    5    100.0   10 
 6/17/18 10:00a   59.9   61.2   59.8    87   56.0   8.0    NE   1.33  13.0   ENE   58.4   60.1   58.6   68.4  29.940  0.00  0.00   658     9.43    670     1.0  0.07   1.2   0.035   0.000   71.6    53   53.6   70.7   9.79  .0737    0.013   211    5    100.0   10 
 6/17/18 10:10a   60.2   60.2   59.7    88   56.6   7.0    NE   1.17  13.0    NE   59.4   60.4   59.6   69.7  29.940  0.00  0.00   679     9.73    693     1.4  0.10   1.6   0.033   0.000   71.5    53   53.5   70.6   9.79  .0737    0.000   211    5    100.0   10 
 6/17/18 10:20a   60.9   60.9   60.2    87   57.0   7.0    NE   1.17  13.0   NNE   60.3   61.2   60.6   70.8  29.939  0.00  0.00   706    10.12    715     1.8  0.13   2.0   0.028   0.000   71.5    53   53.5   70.6   9.79  .0737    0.000   212    5    100.0   10 
 6/17/18 10:30a   61.3   61.3   61.0    87   57.4   8.0    NE   1.33  12.0     N   60.1   61.6   60.4   70.2  29.940  0.00  0.00   728    10.44    737     2.2  0.16   2.4   0.026   0.000   71.4    53   53.4   70.4   9.79  .0737    0.000   211    5    100.0   10 
 6/17/18 10:40a   61.3   61.4   61.2    87   57.4   8.0    NE   1.33  14.0    NE   60.1   61.6   60.4   70.1  29.942  0.00  0.00   749    10.74    759     2.5  0.18   2.6   0.026   0.000   71.4    53   53.4   70.4   9.79  .0738    0.000   212    5    100.0   10 
 6/17/18 10:50a   61.7   61.7   61.3    88   58.1   8.0    NE   1.33  14.0   NNE   60.5   62.1   60.9   70.7  29.941  0.00  0.00   771    11.05    795     2.8  0.20   2.9   0.023   0.000   71.4    54   53.9   70.5   9.92  .0737    0.000   211    5    100.0   10 
 6/17/18 11:00a   61.7   62.1   61.7    86   57.5   9.0    NE   1.50  14.0   NNE   59.7   62.0   60.0   69.7  29.943  0.00  0.00   772    11.07    875     2.9  0.21   3.3   0.023   0.000   71.4    54   53.9   70.5   9.92  .0737    0.016   213    5    100.0   10 
 6/17/18 11:10a   62.6   62.6   61.7    87   58.7   8.0    NE   1.33  13.0    NE   61.6   63.1   62.1   71.7  29.938  0.00  0.00   804    11.53    816     3.5  0.25   3.7   0.017   0.000   71.4    54   53.9   70.5   9.92  .0737    0.000   212    5    100.0   10 
 6/17/18 11:20a   62.9   63.0   62.6    87   59.0   9.0    NE   1.50  15.0   ENE   61.1   63.5   61.7   70.9  29.934  0.00  0.00   823    11.80    833     3.8  0.27   3.9   0.015   0.000   71.4    54   53.9   70.5   9.92  .0737    0.000   211    5    100.0   10 
 6/17/18 11:30a   62.3   63.0   62.3    87   58.4   7.0   NNE   1.17  15.0     N   62.1   62.7   62.5   73.3  29.932  0.00  0.00   809    11.60    858     3.9  0.28   4.0   0.019   0.000   71.4    54   53.9   70.5   9.92  .0737    0.000   208    5    100.0   10 
 6/17/18 11:40a   62.7   62.7   62.4    87   58.8   7.0    NE   1.17  13.0   NNE   62.5   63.2   63.0   73.0  29.928  0.00  0.00   857    12.29    865     4.3  0.31   4.4   0.016   0.000   71.4    54   53.9   70.5   9.92  .0737    0.000   213    5    100.0   10 
 6/17/18 11:50a   62.0   62.8   62.0    87   58.1   8.0    NE   1.33  13.0   NNE   60.9   62.4   61.3   70.8  29.928  0.00  0.00   870    12.47    877     4.5  0.32   4.6   0.021   0.000   71.4    55   54.4   70.6  10.12  .0737    0.000   213    5    100.0   10 
 6/17/18 12:00p   61.4   62.1   61.4    88   57.8  10.0   NNE   1.67  13.0     N   58.6   61.8   59.0   68.3  29.931  0.00  0.00   862    12.36    882     4.4  0.31   4.6   0.025   0.000   71.4    55   54.4   70.6  10.12  .0737    0.019   210    5    100.0   10 
 6/17/18 12:10p   62.5   62.5   61.5    88   58.9   9.0    NE   1.50  15.0   NNE   60.6   63.0   61.1   70.1  29.932  0.00  0.00   887    12.72    900     4.6  0.33   4.8   0.017   0.000   71.4    55   54.4   70.6  10.12  .0737    0.000   212    5    100.0   10 
 6/17/18 12:20p   63.3   63.3   62.5    88   59.7   9.0    NE   1.50  14.0   NNE   61.6   63.9   62.2   71.3  29.931  0.00  0.00   905    12.97    909     4.9  0.35   5.0   0.012   0.000   71.4    55   54.4   70.6  10.12  .0737    0.000   212    5    100.0   10 
 6/17/18 12:30p   63.5   63.9   63.3    85   58.9   9.0    NE   1.50  13.0   NNE   61.8   64.1   62.4   71.4  29.928  0.00  0.00   914    13.10    919     5.1  0.36   5.2   0.010   0.000   71.4    55   54.4   70.6  10.12  .0737    0.000   212    5    100.0   10 
 6/17/18 12:40p   62.9   63.5   62.7    87   59.0   9.0    NE   1.50  14.0   ENE   61.1   63.5   61.7   70.7  29.927  0.00  0.00   920    13.19    925     5.2  0.37   5.2   0.015   0.000   71.5    55   54.5   70.8  10.12  .0737    0.000   212    5    100.0   10 
 6/17/18 12:50p   64.1   64.1   62.9    86   59.8   8.0    NE   1.33  14.0    NE   63.3   64.8   64.0   73.5  29.927  0.00  0.00   931    13.35    970     5.4  0.39   5.5   0.006   0.000   71.5    55   54.5   70.8  10.12  .0737    0.000   211    5    100.0   10 
 6/17/18  1:00p   64.9   64.9   64.1    86   60.6   8.0   ENE   1.33  13.0   NNE   64.3   65.7   65.1   74.5  29.926  0.00  0.00   930    13.33    953     5.5  0.39   5.6   0.001   0.000   71.6    55   54.6   70.9  10.12  .0736    0.020   212    5    100.0   10 
 6/17/18  1:10p   64.7   64.9   64.6    85   60.1   8.0    NE   1.33  13.0    NE   64.0   65.4   64.7   74.1  29.927  0.00  0.00   934    13.39    977     5.6  0.40   5.7   0.002   0.000   71.6    56   55.1   71.0  10.32  .0736    0.000   211    5    100.0   10 
 6/17/18  1:20p   64.7   64.8   64.5    86   60.4   9.0    NE   1.50  14.0   NNE   63.2   65.5   64.0   73.1  29.926  0.00  0.00   940    13.48    960     5.6  0.40   5.7   0.002   0.000   71.6    56   55.1   71.0  10.32  .0736    0.000   212    5    100.0   10 
 6/17/18  1:30p   65.6   65.6   64.7    85   61.0   8.0    NE   1.33  14.0    NE   65.0   66.5   65.9   75.4  29.922  0.00  0.00   937    13.43    947     5.7  0.41   5.8   0.000   0.004   71.7    56   55.2   71.1  10.32  .0736    0.000   212    5    100.0   10 
 6/17/18  1:40p   64.3   65.6   64.3    85   59.7  11.0    NE   1.83  15.0    NE   61.3   65.0   62.0   70.3  29.935  0.00  0.00   927    13.29    942     5.6  0.40   5.8   0.005   0.000   71.8    56   55.3   71.3  10.31  .0736    0.000   212    5    100.0   10 
 6/17/18  1:50p   65.2   65.2   64.3    85   60.6   9.0    NE   1.50  14.0    NE   63.8   66.0   64.6   75.2  29.940  0.00  0.00   811    11.63    923     4.2  0.30   5.0   0.000   0.001   71.9    56   55.3   71.4  10.31  .0736    0.000   210    5    100.0   10 
 6/17/18  2:00p   65.7   65.8   65.2    84   60.7   8.0    NE   1.33  14.0   ENE   65.1   66.6   66.0   76.9  29.941  0.00  0.00   765    10.97    793     4.5  0.32   5.5   0.000   0.005   72.0    56   55.4   71.6  10.31  .0736    0.020   212    5    100.0   10 
 6/17/18  2:10p   65.9   66.0   65.6    84   60.9   9.0    NE   1.50  15.0    NE   64.6   66.9   65.6   75.7  29.935  0.00  0.00   871    12.49    976     5.2  0.37   5.6   0.000   0.006   72.1    56   55.5   71.7  10.31  .0736    0.000   212    5    100.0   10 
 6/17/18  2:20p   65.7   66.0   65.7    83   60.4  10.0    NE   1.67  16.0    NE   63.6   66.6   64.5   73.7  29.932  0.00  0.00   934    13.39   1039     5.3  0.38   5.5   0.000   0.005   72.1    56   55.5   71.7  10.31  .0735    0.000   211    5    100.0   10 
 6/17/18  2:30p   65.3   65.7   65.2    84   60.3  10.0    NE   1.67  15.0    NE   63.2   66.1   64.0   73.0  29.930  0.00  0.00   907    13.00    916     5.2  0.37   5.3   0.000   0.002   72.2    56   55.6   71.9  10.31  .0735    0.000   214    5    100.0   10 
 6/17/18  2:40p   64.6   65.3   64.6    84   59.7  11.0    NE   1.83  14.0    NE   61.6   65.3   62.3   71.0  29.929  0.00  0.00   898    12.87    904     4.9  0.35   5.0   0.003   0.000   72.2    56   55.6   71.9  10.31  .0735    0.000   212    5    100.0   10 
 6/17/18  2:50p   65.2   65.2   64.4    84   60.2   9.0    NE   1.50  14.0   NNE   63.8   66.0   64.6   74.0  29.928  0.00  0.00   889    12.74    895     4.7  0.34   4.8   0.000   0.001   72.2    56   55.6   71.9  10.31  .0735    0.000   212    5    100.0   10 
 6/17/18  3:00p   65.1   65.4   65.1    83   59.8  10.0    NE   1.67  14.0    NE   62.9   65.9   63.7   72.8  29.932  0.00  0.00   875    12.54    882     4.5  0.32   4.7   0.000   0.001   72.3    56   55.7   72.0  10.30  .0735    0.021   211    5    100.0   10 
 6/17/18  3:10p   65.9   65.9   65.0    84   60.9   8.0   NNE   1.33  14.0   NNE   65.3   66.9   66.3   76.2  29.933  0.00  0.00   859    12.31    933     4.2  0.30   4.4   0.000   0.006   72.3    56   55.7   72.0  10.30  .0735    0.000   213    5    100.0   10 
 6/17/18  3:20p   66.1   66.1   65.9    83   60.8   9.0    NE   1.50  15.0   NNE   64.8   67.1   65.8   75.8  29.929  0.00  0.00   803    11.51    909     4.0  0.29   4.5   0.000   0.008   72.5    56   55.9   72.3  10.30  .0735    0.000   212    5    100.0   10 
 6/17/18  3:30p   66.0   66.6   66.0    82   60.3   9.0    NE   1.50  14.0   NNE   64.7   66.9   65.6   75.5  29.931  0.00  0.00   848    12.16    902     3.9  0.28   4.2   0.000   0.007   72.6    57   56.5   72.6  10.45  .0734    0.000   212    5    100.0   10 
 6/17/18  3:40p   65.3   66.0   65.3    83   60.0   9.0    NE   1.50  13.0   NNE   63.9   66.1   64.7   74.9  29.927  0.00  0.00   706    10.12    795     2.9  0.21   3.3   0.000   0.002   72.6    57   56.5   72.6  10.45  .0734    0.000   213    5    100.0   10 
 6/17/18  3:50p   65.3   65.3   65.2    83   60.0   9.0    NE   1.50  14.0    NE   63.9   66.1   64.7   74.1  29.926  0.00  0.00   580     8.31    612     2.5  0.18   3.2   0.000   0.002   72.8    57   56.7   72.9  10.44  .0734    0.000   213    5    100.0   10 
 6/17/18  4:00p   65.4   65.4   65.3    83   60.1   9.0    NE   1.50  13.0    NE   64.0   66.2   64.8   74.8  29.926  0.00  0.00   654     9.38    773     2.3  0.16   3.3   0.000   0.003   72.9    57   56.8   73.0  10.43  .0734    0.018   212    5    100.0   10 
 6/17/18  4:10p   65.4   65.5   65.4    83   60.1   8.0    NE   1.33  12.0     E   64.8   66.2   65.6   75.8  29.923  0.00  0.00   611     8.76    673     1.7  0.12   2.1   0.000   0.003   73.0    56   56.4   73.1  10.29  .0734    0.000   213    5    100.0   10 
 6/17/18  4:20p   65.2   65.5   65.0    83   59.9   7.0    NE   1.17  13.0    NE   65.2   66.0   66.0   76.4  29.927  0.00  0.00   573     8.21    640     1.1  0.08   2.1   0.000   0.001   73.1    57   57.0   73.3  10.43  .0733    0.000   210    5    100.0   10 
 6/17/18  4:30p   65.4   65.7   65.2    82   59.8   7.0    NE   1.17  13.0   NNE   65.4   66.2   66.2   75.7  29.922  0.00  0.00   492     7.05    622     0.5  0.04   1.4   0.000   0.003   73.2    57   57.1   73.4  10.42  .0733    0.000   213    5    100.0   10 
 6/17/18  4:40p   65.5   65.6   65.3    83   60.2   7.0    NE   1.17  12.0    NE   65.5   66.4   66.4   75.6  29.921  0.00  0.00   460     6.59    483     0.5  0.04   2.0   0.000   0.003   73.3    57   57.1   73.5  10.42  .0733    0.000   209    5    100.0   10 
 6/17/18  4:50p   65.7   65.7   65.4    83   60.4   7.0    NE   1.17  13.0   NNE   65.7   66.6   66.6   77.1  29.921  0.00  0.00   550     7.88    770     0.2  0.01   1.5   0.000   0.005   73.3    57   57.1   73.5  10.42  .0733    0.000   211    5    100.0   10 
 6/17/18  5:00p   65.7   65.7   65.6    82   60.1   7.0    NE   1.17  13.0   NNE   65.7   66.6   66.6   77.2  29.920  0.00  0.00   547     7.84    633     0.0  0.00   0.0   0.000   0.005   73.3    57   57.1   73.5  10.42  .0733    0.013   214    5    100.0   10 
 6/17/18  5:10p   66.1   66.3   65.7    81   60.1   7.0    NE   1.17  12.0    NE   66.1   67.0   67.0   78.0  29.921  0.00  0.00   623     8.93    638     0.0  0.00   0.0   0.000   0.008   73.3    57   57.1   73.5  10.42  .0733    0.000   210    5    100.0   10 
 6/17/18  5:20p   65.5   66.2   65.5    81   59.5   9.0    NE   1.50  12.0   ENE   64.2   66.3   65.0   75.2  29.918  0.00  0.00   601     8.62    608     0.0  0.00   0.0   0.000   0.003   73.3    57   57.1   73.5  10.42  .0733    0.000   210    5    100.0   10 
 6/17/18  5:30p   65.4   65.5   65.3    81   59.4   9.0    NE   1.50  12.0    NE   64.0   66.2   64.8   75.0  29.916  0.00  0.00   574     8.23    585     0.0  0.00   0.0   0.000   0.003   73.3    56   56.7   73.4  10.28  .0733    0.000   214    5    100.0   10 
 6/17/18  5:40p   64.8   65.4   64.8    82   59.2  10.0    NE   1.67  13.0   ENE   62.6   65.5   63.3   73.2  29.916  0.00  0.00   547     7.84    559     0.0  0.00   0.0   0.001   0.000   73.4    56   56.7   73.6  10.28  .0733    0.000   210    5    100.0   10 
 6/17/18  5:50p   65.2   65.2   64.6    82   59.6   7.0    NE   1.17  12.0   NNE   65.2   66.0   66.0   77.0  29.917  0.00  0.00   517     7.41    531     0.0  0.00   0.0   0.000   0.001   73.3    56   56.7   73.4  10.28  .0733    0.000   209    5    100.0   10 
 6/17/18  6:00p   63.4   65.3   63.4    82   57.8   8.0    NE   1.33  13.0   ENE   62.5   63.8   62.9   67.2  29.920  0.00  0.00   187     2.68    533     0.0  0.00   0.0   0.011   0.000   73.4    56   56.7   73.6  10.28  .0733    0.012   212    5    100.0   10 
 6/17/18  6:10p   63.1   63.4   63.0    84   58.2   6.0    NE   1.00  11.0    NE   63.1   63.6   63.6   70.4  29.921  0.00  0.00   255     3.66    316     0.0  0.00   0.0   0.013   0.000   73.4    56   56.7   73.6  10.28  .0733    0.000   212    5    100.0   10 
 6/17/18  6:20p   63.4   63.4   63.1    84   58.5   6.0    NE   1.00  12.0    NE   63.4   63.9   63.9   70.2  29.923  0.00  0.00   229     3.28    297     0.0  0.00   0.0   0.011   0.000   73.5    56   56.8   73.7  10.28  .0733    0.000   212    5    100.0   10 
 6/17/18  6:30p   63.0   63.4   62.9    84   58.1   9.0    NE   1.50  13.0   NNE   61.2   63.5   61.7   70.5  29.926  0.00  0.00   377     5.40    410     0.0  0.00   0.0   0.014   0.000   73.5    56   56.8   73.7  10.28  .0733    0.000   212    5    100.0   10 
 6/17/18  6:40p   62.7   63.0   62.5    85   58.1  10.0    NE   1.67  14.0    NE   60.1   63.1   60.5   68.8  29.927  0.00  0.00   352     5.05    390     0.0  0.00   0.0   0.016   0.000   73.5    56   56.8   73.7  10.28  .0733    0.000   210    5    100.0   10 
 6/17/18  6:50p   63.5   63.5   62.7    85   58.9   6.0   NNE   1.00  11.0   NNE   63.5   64.1   64.1   72.6  29.930  0.00  0.00   307     4.40    397     0.0  0.00   0.0   0.010   0.000   73.5    56   56.8   73.7  10.28  .0733    0.000   209    5    100.0   10 
 6/17/18  7:00p   63.8   63.9   63.5    84   58.9   6.0   ENE   1.00  10.0    NE   63.8   64.4   64.4   72.6  29.927  0.00  0.00   282     4.04    339     0.0  0.00   0.0   0.008   0.000   73.6    56   56.9   73.8  10.28  .0733    0.007   212    5    100.0   10 
 6/17/18  7:10p   64.3   64.3   63.9    84   59.4   5.0    NE   0.83   9.0   NNE   64.3   64.9   64.9   73.3  29.925  0.00  0.00   275     3.94    299     0.0  0.00   0.0   0.005   0.000   73.6    56   56.9   73.8  10.28  .0733    0.000   212    5    100.0   10 
 6/17/18  7:20p   64.4   64.5   64.2    84   59.5   4.0    NE   0.67   8.0     E   64.4   65.1   65.1   72.5  29.927  0.00  0.00   241     3.45    262     0.0  0.00   0.0   0.004   0.000   73.7    56   57.0   73.9  10.28  .0733    0.000   210    5    100.0   10 
 6/17/18  7:30p   64.1   64.5   64.1    84   59.2   5.0   NNE   0.83   9.0   NNE   64.1   64.7   64.7   71.0  29.923  0.00  0.00   205     2.94    221     0.0  0.00   0.0   0.006   0.000   73.8    56   57.1   74.1  10.27  .0732    0.000   212    5    100.0   10 
 6/17/18  7:40p   63.3   64.1   63.3    83   58.0   5.0    NE   0.83   9.0    NE   63.3   63.8   63.8   68.3  29.923  0.00  0.00   161     2.31    186     0.0  0.00   0.0   0.012   0.000   73.8    56   57.1   74.1  10.27  .0732    0.000   212    5    100.0   10 
 6/17/18  7:50p   62.8   63.2   62.8    84   57.9   5.0   NNE   0.83   8.0   NNE   62.8   63.2   63.2   63.5  29.926  0.00  0.00   141     2.02    156     0.0  0.00   0.0   0.015   0.000   73.8    56   57.1   74.1  10.27  .0732    0.000   213    5    100.0   10 
 6/17/18  8:00p   62.6   62.8   62.6    84   57.7   4.0   ENE   0.67   7.0   ENE   62.6   63.0   63.0   62.2  29.928  0.00  0.00    87     1.25    104     0.0  0.00   0.0   0.017   0.000   73.9    56   57.2   74.2  10.27  .0732    0.005   212    5    100.0   10 
 6/17/18  8:10p   62.2   62.6   62.2    85   57.6   4.0    NE   0.67  10.0    NE   62.2   62.5   62.5   61.8  29.930  0.00  0.00    92     1.32     98     0.0  0.00   0.0   0.019   0.000   73.9    56   57.2   74.2  10.27  .0732    0.000   209    5    100.0   10 
 6/17/18  8:20p   62.0   62.2   62.0    85   57.4   4.0   ENE   0.67   9.0    NE   62.0   62.3   62.3   61.1  29.932  0.00  0.00    68     0.97     79     0.0  0.00   0.0   0.021   0.000   74.0    56   57.3   74.3  10.27  .0732    0.000   211    5    100.0   10 
 6/17/18  8:30p   61.2   61.9   61.2    85   56.7   4.0    NE   0.67   8.0   NNE   61.2   61.4   61.4   59.6  29.935  0.00  0.00    45     0.65     54     0.0  0.00   0.0   0.026   0.000   74.0    56   57.3   74.3  10.27  .0732    0.000   213    5    100.0   10 
 6/17/18  8:40p   61.0   61.2   60.9    87   57.1   4.0   ENE   0.67   9.0   ENE   61.0   61.3   61.3   59.1  29.953  0.00  0.00    25     0.36     33     0.0  0.00   0.0   0.028   0.000   74.0    56   57.3   74.3  10.27  .0733    0.000   211    5    100.0   10 
 6/17/18  8:50p   59.7   61.0   59.7    86   55.5   6.0    NE   1.00  10.0   ENE   59.2   59.8   59.3   56.8  29.941  0.00  0.00    13     0.19     16     0.0  0.00   0.0   0.037   0.000   74.0    56   57.3   74.3  10.27  .0732    0.000   213    5    100.0   10 
 6/17/18  9:00p   59.8   59.8   59.5    88   56.2   5.0   ENE   0.83  11.0    NE   59.8   60.0   60.0   57.4  29.941  0.00  0.00     9     0.13     11     0.0  0.00   0.0   0.036   0.000   74.0    56   57.3   74.3  10.27  .0732    0.001   212    5    100.0   10 
 6/17/18  9:10p   60.0   60.1   59.8    88   56.4   5.0    NE   0.83  10.0    NE   60.0   60.2   60.2   57.5  29.944  0.00  0.00     3     0.04      7     0.0  0.00   0.0   0.035   0.000   74.0    56   57.3   74.3  10.27  .0732    0.000   210    5    100.0   10 
 6/17/18  9:20p   59.5   60.0   59.5    89   56.3   5.0   ENE   0.83   9.0   NNE   59.4   59.7   59.6   56.8  29.939  0.00  0.00     0     0.00      0     0.0  0.00   0.0   0.038   0.000   74.0    56   57.3   74.3  10.27  .0732    0.000   213    5    100.0   10 
 6/17/18  9:30p   59.8   59.8   59.5    89   56.6   2.0    NE   0.33   6.0   ENE   59.8   60.0   60.0   57.2  29.944  0.00  0.00     0     0.00      0     0.0  0.00   0.0   0.036   0.000   74.0    56   57.3   74.3  10.27  .0732    0.000   212    5    100.0   10 
 6/17/18  9:40p   59.4   59.7   59.3    89   56.2   2.0   ENE   0.33   4.0     E   59.4   59.6   59.6   56.8  29.946  0.00  0.00     0     0.00      0     0.0  0.00   0.0   0.039   0.000   74.0    56   57.3   74.3  10.27  .0732    0.000   213    5    100.0   10 
 6/17/18  9:50p   59.0   59.4   59.0    89   55.8   0.0     E   0.00   3.0     E   59.0   59.2   59.2   56.4  29.954  0.00  0.00     0     0.00      0     0.0  0.00   0.0   0.042   0.000   74.0    56   57.3   74.3  10.27  .0733    0.000   213    5    100.0   10 
 6/17/18 10:00p   56.9   59.0   56.9    88   53.4   1.0     S   0.17   3.0   WSW   56.9   56.9   56.9   54.0  29.961  0.00  0.00     0     0.00      0     0.0  0.00   0.0   0.056   0.000   74.0    56   57.3   74.3  10.27  .0733    0.000   211    5    100.0   10 
 6/17/18 10:10p   56.2   56.8   56.2    90   53.3   2.0   SSW   0.33   6.0    SW   56.2   56.3   56.3   53.4  29.963  0.00  0.00     0     0.00      0     0.0  0.00   0.0   0.061   0.000   74.0    56   57.3   74.3  10.27  .0733    0.000   210    5    100.0   10 
 6/17/18 10:20p   55.9   56.4   55.9    91   53.3   4.0   SSW   0.67   8.0   SSW   55.7   56.0   55.8   52.9  29.964  0.00  0.00     0     0.00      0     0.0  0.00   0.0   0.063   0.000   74.0    56   57.3   74.3  10.27  .0733    0.000   212    5    100.0   10 
 6/17/18 10:30p   55.9   55.9   55.7    92   53.6   3.0   SSW   0.50   6.0   SSW   55.9   56.0   56.0   53.1  29.963  0.00  0.00     0     0.00      0     0.0  0.00   0.0   0.063   0.000   74.0    56   57.3   74.3  10.27  .0733    0.000   212    5    100.0   10 
 6/17/18 10:40p   55.0   55.9   55.0    91   52.4   2.0     S   0.33   5.0   SSW   55.0   55.1   55.1   52.1  29.965  0.00  0.00     0     0.00      0     0.0  0.00   0.0   0.069   0.000   74.0    56   57.3   74.3  10.27  .0733    0.000   212    5    100.0   10 
 6/17/18 10:50p   54.9   55.0   54.9    92   52.6   1.0   SSW   0.17   3.0   SSW   54.9   55.0   55.0   52.0  29.963  0.00  0.00     0     0.00      0     0.0  0.00   0.0   0.070   0.000   74.0    56   57.3   74.3  10.27  .0733    0.000   209    5    100.0   10 
 6/17/18 11:00p   54.6   54.8   54.5    92   52.3   1.0     S   0.17   3.0   SSW   54.6   54.7   54.7   51.7  29.966  0.00  0.00     0     0.00      0     0.0  0.00   0.0   0.072   0.000   74.0    56   57.3   74.3  10.27  .0733    0.000   210    5    100.0   10 
 6/17/18 11:10p   55.0   55.0   54.6    92   52.7   1.0   SSW   0.17   2.0   SSW   55.0   55.1   55.1   52.1  29.969  0.00  0.00     0     0.00      0     0.0  0.00   0.0   0.069   0.000   74.0    56   57.3   74.3  10.27  .0733    0.000   212    5    100.0   10 
 6/17/18 11:20p   55.6   55.6   55.0    93   53.6   0.0   SSW   0.00   2.0   SSW   55.6   55.8   55.8   52.9  29.974  0.00  0.00     0     0.00      0     0.0  0.00   0.0   0.065   0.000   74.0    56   57.3   74.3  10.27  .0733    0.000   211    5    100.0   10 
 6/17/18 11:30p   55.7   56.0   55.7    93   53.7   0.0    SE   0.00   1.0    SE   55.7   55.9   55.9   53.0  29.975  0.00  0.00     0     0.00      0     0.0  0.00   0.0   0.065   0.000   74.0    56   57.3   74.3  10.27  .0733    0.000   211    5    100.0   10 
 6/17/18 11:40p   56.0   56.0   55.7    93   54.0   0.0   ---   0.00   0.0   ---   56.0   56.2   56.2   53.3  29.975  0.00  0.00     0     0.00      0     0.0  0.00   0.0   0.063   0.000   73.9    55   56.7   74.1  10.07  .0734    0.000   212    5    100.0   10 
 6/17/18 11:50p   56.7   56.7   56.1    93   54.7   0.0    SE   0.00   1.0    SE   56.7   56.9   56.9   54.0  29.973  0.00  0.00     0     0.00      0     0.0  0.00   0.0   0.058   0.000   73.9    55   56.7   74.1  10.07  .0734    0.000   214    5    100.0   10 
 6/18/18 12:00a   57.0   57.0   56.6    93   55.0   0.0   ---   0.00   0.0   ---   57.0   57.2   57.2   54.3  29.973  0.00  0.00     0     0.00      0     0.0  0.00   0.0   0.056   0.000   73.9    55   56.7   74.1  10.07  .0734    0.000   211    5    100.0   10 
 6/18/18 12:10a   56.3   57.1   56.3    92   54.0   0.0    SE   0.00   2.0    SE   56.3   56.4   56.4   53.5  29.972  0.00  0.00     0     0.00      0     0.0  0.00   0.0   0.060   0.000   73.9    55   56.7   74.1  10.07  .0734    0.000   208    5    100.0   10 
 6/18/18 12:20a   56.1   56.3   56.1    92   53.8   0.0    SE   0.00   1.0    SE   56.1   56.2   56.2   53.3  29.969  0.00  0.00     0     0.00      0     0.0  0.00   0.0   0.062   0.000   73.9    55   56.7   74.1  10.07  .0733    0.000   211    5    100.0   10 
 6/18/18 12:30a   55.6   56.1   55.6    93   53.6   0.0   SSE   0.00   2.0    SE   55.6   55.8   55.8   52.9  29.969  0.00  0.00     0     0.00      0     0.0  0.00   0.0   0.065   0.000   73.9    55   56.7   74.1  10.07  .0733    0.000   212    5    100.0   10 
 6/18/18 12:40a   55.7   55.8   55.6    93   53.7   0.0   SSE   0.00   1.0   SSE   55.7   55.9   55.9   53.0  29.968  0.00  0.00     0     0.00      0     0.0  0.00   0.0   0.065   0.000   73.8    55   56.6   74.0  10.07  .0734    0.000   211    5    100.0   10 
 6/18/18 12:50a   55.5   55.6   55.2    93   53.5   0.0   SSE   0.00   1.0   SSE   55.5   55.7   55.7   52.8  29.972  0.00  0.00     0     0.00      0     0.0  0.00   0.0   0.066   0.000   73.8    55   56.6   74.0  10.07  .0734    0.000   212    5    100.0   10 
 6/18/18  1:00a   54.8   55.5   54.8    93   52.8   1.0     S   0.17   2.0   SSE   54.8   55.0   55.0   52.0  29.973  0.00  0.00     0     0.00      0     0.0  0.00   0.0   0.071   0.000   73.8    55   56.6   74.0  10.07  .0734    0.000   205    5     99.0   10 
 6/18/18  1:10a   54.9   55.0   54.9    93   52.9   0.0     S   0.00   2.0     S   54.9   55.1   55.1   52.1  29.972  0.00  0.00     0     0.00      0     0.0  0.00   0.0   0.070   0.000   73.8    55   56.6   74.0  10.07  .0734    0.000   208    5    100.0   10 
 6/18/18  1:20a   54.8   55.0   54.8    93   52.8   1.0   SSW   0.17   2.0   SSW   54.8   55.0   55.0   52.0  29.974  0.00  0.00     0     0.00      0     0.0  0.00   0.0   0.071   0.000   73.8    55   56.6   74.0  10.07  .0734    0.000   212    5    100.0   10 
 6/18/18  1:30a   55.0   55.1   54.8    93   53.0   0.0    SE   0.00   1.0   SSW   55.0   55.2   55.2   52.3  29.982  0.00  0.00     0     0.00      0     0.0  0.00   0.0   0.069   0.000   73.8    55   56.6   74.0  10.07  .0734    0.000   210    5    100.0   10 
 6/18/18  1:40a   54.6   54.9   54.6    93   52.6   1.0   SSW   0.17   4.0   SSW   54.6   54.8   54.8   51.8  29.973  0.00  0.00     0     0.00      0     0.0  0.00   0.0   0.072   0.000   73.8    55   56.6   74.0  10.07  .0734    0.000   208    5    100.0   10 
 6/18/18  1:50a   55.1   55.1   54.6    94   53.4   1.0     S   0.17   4.0     S   55.1   55.3   55.3   52.4  29.973  0.00  0.00     0     0.00      0     0.0  0.00   0.0   0.069   0.000   73.8    55   56.6   74.0  10.07  .0734    0.000   213    5    100.0   10 
 6/18/18  2:00a   54.8   55.1   54.8    93   52.8   1.0     S   0.17   2.0     S   54.8   55.0   55.0   52.0  29.975  0.00  0.00     0     0.00      0     0.0  0.00   0.0   0.071   0.000   73.8    55   56.6   74.0  10.07  .0734    0.000   213    5    100.0   10 
 6/18/18  2:10a   54.8   54.8   54.5    94   53.1   1.0   SSW   0.17   4.0   WSW   54.8   55.0   55.0   52.1  29.982  0.00  0.00     0     0.00      0     0.0  0.00   0.0   0.071   0.000   73.7    55   56.5   73.8  10.08  .0734    0.000   213    5    100.0   10 
 6/18/18  2:20a   54.5   54.8   54.5    94   52.8   1.0     S   0.17   3.0    SW   54.5   54.7   54.7   51.7  29.975  0.00  0.00     0     0.00      0     0.0  0.00   0.0   0.073   0.000   73.7    55   56.5   73.8  10.08  .0734    0.000   209    5    100.0   10 
 6/18/18  2:30a   54.3   54.5   54.0    94   52.6   1.0   SSW   0.17   3.0   SSW   54.3   54.5   54.5   51.5  29.972  0.00  0.00     0     0.00      0     0.0  0.00   0.0   0.074   0.000   73.7    55   56.5   73.8  10.08  .0734    0.000   212    5    100.0   10 
 6/18/18  2:40a   54.8   54.9   54.3    94   53.1   1.0     S   0.17   3.0     S   54.8   55.0   55.0   52.1  29.973  0.00  0.00     0     0.00      0     0.0  0.00   0.0   0.071   0.000   73.6    55   56.4   73.7  10.08  .0734    0.000   212    5    100.0   10 
 6/18/18  2:50a   54.8   54.8   54.6    94   53.1   2.0     S   0.33   5.0   SSW   54.8   55.0   55.0   52.1  29.974  0.00  0.00     0     0.00      0     0.0  0.00   0.0   0.071   0.000   73.6    55   56.4   73.7  10.08  .0734    0.000   211    5    100.0   10 
 6/18/18  3:00a   55.0   55.0   54.7    95   53.6   2.0     S   0.33   5.0   SSW   55.0   55.2   55.2   52.3  29.978  0.00  0.00     0     0.00      0     0.0  0.00   0.0   0.069   0.000   73.6    55   56.4   73.7  10.08  .0734    0.000   213    5    100.0   10 
 6/18/18  3:10a   54.6   55.0   54.6    94   52.9   2.0   SSW   0.33   5.0   SSE   54.6   54.8   54.8   51.8  29.984  0.00  0.00     0     0.00      0     0.0  0.00   0.0   0.072   0.000   73.6    55   56.4   73.7  10.08  .0734    0.000   212    5    100.0   10 
 6/18/18  3:20a   54.4   54.6   54.4    94   52.7   2.0     S   0.33   4.0   SSW   54.4   54.6   54.6   51.6  29.985  0.00  0.00     0     0.00      0     0.0  0.00   0.0   0.074   0.000   73.6    55   56.4   73.7  10.08  .0734    0.000   213    5    100.0   10 
 6/18/18  3:30a   54.2   54.4   54.0    95   52.8   2.0     S   0.33   4.0   SSE   54.2   54.4   54.4   51.4  29.983  0.00  0.00     0     0.00      0     0.0  0.00   0.0   0.075   0.000   73.6    55   56.4   73.7  10.08  .0734    0.000   212    5    100.0   10 
 6/18/18  3:40a   54.5   54.6   54.2    95   53.1   1.0     S   0.17   4.0   SSW   54.5   54.7   54.7   51.8  29.982  0.00  0.00     0     0.00      0     0.0  0.00   0.0   0.073   0.000   73.6    55   56.4   73.7  10.08  .0734    0.000   213    5    100.0   10 
 6/18/18  3:50a   54.4   54.7   54.4    94   52.7   1.0     S   0.17   2.0     S   54.4   54.6   54.6   51.6  29.985  0.00  0.00     0     0.00      0     0.0  0.00   0.0   0.074   0.000   73.5    55   56.3   73.6  10.08  .0735    0.000   213    5    100.0   10 
 6/18/18  4:00a   54.2   54.4   54.2    95   52.8   1.0     S   0.17   3.0   SSW   54.2   54.4   54.4   51.4  29.983  0.00  0.00     0     0.00      0     0.0  0.00   0.0   0.075   0.000   73.5    55   56.3   73.6  10.08  .0735    0.000   212    5    100.0   10 
 6/18/18  4:10a   54.1   54.2   54.0    95   52.7   1.0     S   0.17   3.0     S   54.1   54.3   54.3   51.3  29.983  0.00  0.00     0     0.00      0     0.0  0.00   0.0   0.076   0.000   73.5    55   56.3   73.6  10.08  .0735    0.000   211    5    100.0   10 
 6/18/18  4:20a   54.3   54.3   54.1    95   52.9   0.0     S   0.00   1.0     S   54.3   54.5   54.5   51.5  29.982  0.00  0.00     0     0.00      0     0.0  0.00   0.0   0.074   0.000   73.4    55   56.2   73.5  10.08  .0735    0.000   212    5    100.0   10 
 6/18/18  4:30a   54.4   54.6   54.3    95   53.0   0.0     S   0.00   1.0     S   54.4   54.6   54.6   51.6  29.982  0.00  0.00     0     0.00      0     0.0  0.00   0.0   0.074   0.000   73.4    55   56.2   73.5  10.08  .0735    0.000   209    5    100.0   10 
 6/18/18  4:40a   54.4   54.4   54.2    95   53.0   0.0     S   0.00   1.0     S   54.4   54.6   54.6   51.6  29.981  0.00  0.00     0     0.00      0     0.0  0.00   0.0   0.074   0.000   73.4    55   56.2   73.5  10.08  .0735    0.000   212    5    100.0   10 
 6/18/18  4:50a   54.7   54.7   54.4    95   53.3   1.0     S   0.17   2.0     S   54.7   54.9   54.9   52.0  29.988  0.00  0.00     0     0.00      0     0.0  0.00   0.0   0.072   0.000   73.4    55   56.2   73.5  10.08  .0735    0.000   211    5    100.0   10 
 6/18/18  5:00a   54.7   54.9   54.5    95   53.3   1.0   SSE   0.17   2.0     S   54.7   54.9   54.9   52.0  29.990  0.00  0.00     0     0.00      0     0.0  0.00   0.0   0.072   0.000   73.4    55   56.2   73.5  10.08  .0735    0.000   213    5    100.0   10 
 6/18/18  5:10a   54.2   54.7   53.9    95   52.8   1.0     S   0.17   3.0   SSW   54.2   54.4   54.4   51.4  29.989  0.00  0.00     0     0.00      0     0.0  0.00   0.0   0.075   0.000   73.4    55   56.2   73.5  10.08  .0735    0.000   214    5    100.0   10 
 6/18/18  5:20a   54.2   54.3   54.2    95   52.8   1.0     S   0.17   4.0   SSW   54.2   54.4   54.4   51.4  29.992  0.00  0.00     0     0.00      0     0.0  0.00   0.0   0.075   0.000   73.3    54   55.6   73.3   9.88  .0735    0.000   211    5    100.0   10 
 6/18/18  5:30a   54.3   54.3   54.1    95   52.9   4.0     S   0.67   7.0   SSW   53.8   54.5   54.0   51.0  29.991  0.00  0.00     0     0.00      0     0.0  0.00   0.0   0.074   0.000   73.3    54   55.6   73.3   9.88  .0735    0.000   210    5    100.0   10 
 6/18/18  5:40a   54.6   54.6   54.2    96   53.5   5.0   SSW   0.83   7.0   SSW   53.6   54.8   53.8   50.9  29.995  0.00  0.00     1     0.01      5     0.0  0.00   0.0   0.072   0.000   73.3    54   55.6   73.3   9.88  .0735    0.000   214    5    100.0   10 
 6/18/18  5:50a   54.2   54.7   54.2    95   52.8   4.0   SSW   0.67   7.0   SSW   53.7   54.4   53.9   51.1  29.997  0.00  0.00     7     0.10      9     0.0  0.00   0.0   0.075   0.000   73.3    54   55.6   73.3   9.88  .0735    0.000   211    5    100.0   10 
 6/18/18  6:00a   54.3   54.3   54.0    96   53.2   5.0   SSW   0.83   7.0   SSW   53.3   54.5   53.5   50.8  30.005  0.00  0.00    11     0.16     14     0.0  0.00   0.0   0.074   0.000   73.3    54   55.6   73.3   9.88  .0736    0.000   210    5    100.0   10 
 6/18/18  6:10a   53.8   54.3   53.7    95   52.4   5.0   SSW   0.83   7.0   SSE   52.7   54.0   52.9   50.3  30.007  0.00  0.00    16     0.23     19     0.0  0.00   0.0   0.078   0.000   73.2    54   55.6   73.1   9.89  .0736    0.000   213    5    100.0   10 
 6/18/18  6:20a   54.2   54.5   53.8    95   52.8   6.0   SSW   1.00   9.0     S   52.6   54.4   52.8   50.3  30.011  0.00  0.00    22     0.32     26     0.0  0.00   0.0   0.075   0.000   73.2    54   55.6   73.1   9.89  .0736    0.000   211    5    100.0   10 
 6/18/18  6:30a   54.1   54.5   54.1    95   52.7   6.0   SSW   1.00   9.0   SSW   52.5   54.3   52.7   50.1  30.013  0.00  0.00    16     0.23     18     0.0  0.00   0.0   0.076   0.000   73.2    54   55.6   73.1   9.89  .0736    0.000   212    5    100.0   10 
Email: AdamSPAM@StormwatchersRetreat.com (To send me email remove the word 'SPAM' from my email address.)